Home > Products > Valid Products > MTR

000
SAGM31 PGUM 202155
MTRGUM
METAR PGUM 202154Z 00000KT 8SM -RA FEW045 BKN095 OVC110 26/25 A2988
RMK AO2 RAB21 SLP113 P0003 T02610250 $




000
SAGM31 PGUM 202155
MTRGUM
METAR PGUM 202154Z 00000KT 8SM -RA FEW045 BKN095 OVC110 26/25 A2988
RMK AO2 RAB21 SLP113 P0003 T02610250 $





000
SAGM31 PGUM 202055
MTRGUM
METAR PGUM 202054Z 36003KT 10SM FEW020 26/24 A2987 RMK AO2 SLP109
T02560239 53017 $





000
SAGM31 PGUM 202055
MTRGUM
METAR PGUM 202054Z 36003KT 10SM FEW020 26/24 A2987 RMK AO2 SLP109
T02560239 53017 $




000
SAGM31 PGUM 201955
MTRGUM
METAR PGUM 201954Z 00000KT 10SM FEW046 SCT065 26/23 A2985 RMK AO2
SLP101 FRQ LTGICCC DSNT SE T02560233 $




000
SAGM31 PGUM 201955
MTRGUM
METAR PGUM 201954Z 00000KT 10SM FEW046 SCT065 26/23 A2985 RMK AO2
SLP101 FRQ LTGICCC DSNT SE T02560233 $





000
SAGM31 PGUM 201855
MTRGUM
METAR PGUM 201854Z 00000KT 10SM BKN047 25/23 A2984 RMK AO2 SLP097
T02500228 $




000
SAGM31 PGUM 201855
MTRGUM
METAR PGUM 201854Z 00000KT 10SM BKN047 25/23 A2984 RMK AO2 SLP097
T02500228 $





000
SAGM31 PGUM 201755
MTRGUM
METAR PGUM 201754Z 00000KT 10SM CLR 25/23 A2982 RMK AO2 SLP092
T02500228 10256 20244 56017 $




000
SAGM31 PGUM 201755
MTRGUM
METAR PGUM 201754Z 00000KT 10SM CLR 25/23 A2982 RMK AO2 SLP092
T02500228 10256 20244 56017 $





000
SAGM31 PGUM 201655
MTRGUM
METAR PGUM 201654Z 00000KT 10SM CLR 24/22 A2984 RMK AO2 SLP096
T02440222 $





000
SAGM31 PGUM 201655
MTRGUM
METAR PGUM 201654Z 00000KT 10SM CLR 24/22 A2984 RMK AO2 SLP096
T02440222 $




000
SAGM31 PGUM 201555
MTRGUM
METAR PGUM 201554Z 00000KT 10SM CLR 25/23 A2985 RMK AO2 SLP101
T02500228 $




000
SAGM31 PGUM 201555
MTRGUM
METAR PGUM 201554Z 00000KT 10SM CLR 25/23 A2985 RMK AO2 SLP101
T02500228 $





000
SAGM31 PGUM 201455
MTRGUM
METAR PGUM 201454Z 00000KT 10SM CLR 26/23 A2987 RMK AO2 SLP108
T02560233 58006 $




000
SAGM31 PGUM 201455
MTRGUM
METAR PGUM 201454Z 00000KT 10SM CLR 26/23 A2987 RMK AO2 SLP108
T02560233 58006 $





000
SAGM31 PGUM 201355
MTRGUM
METAR PGUM 201354Z 00000KT 10SM CLR 25/23 A2988 RMK AO2 SLP111
T02500233 403110239




000
SAGM31 PGUM 201355
MTRGUM
METAR PGUM 201354Z 00000KT 10SM CLR 25/23 A2988 RMK AO2 SLP111
T02500233 403110239





000
SAGM31 PGUM 201255
MTRGUM
METAR PGUM 201254Z 00000KT 10SM CLR 24/23 A2990 RMK AO2 SLP115
T02440233




000
SAGM31 PGUM 201255
MTRGUM
METAR PGUM 201254Z 00000KT 10SM CLR 24/23 A2990 RMK AO2 SLP115
T02440233





000
SAGM31 PGUM 201158
MTRGUM
METAR PGUM 201154Z COR 00000KT 10SM CLR 26/23 A2989 RMK AO2 SLP113
P0001 60001 70102 T02560233 10272 20256 53019




000
SAGM31 PGUM 201158
MTRGUM
METAR PGUM 201154Z COR 00000KT 10SM CLR 26/23 A2989 RMK AO2 SLP113
P0001 60001 70102 T02560233 10272 20256 53019





000
SAGM31 PGUM 201155
MTRGUM
METAR PGUM 201154Z 00000KT 10SM CLR 26/23 A2989 RMK AO2 SLP113 P0001
60001 70084 T02560233 10272 20256 53019




000
SAGM31 PGUM 201155
MTRGUM
METAR PGUM 201154Z 00000KT 10SM CLR 26/23 A2989 RMK AO2 SLP113 P0001
60001 70084 T02560233 10272 20256 53019





000
SAGM31 PGUM 201055
MTRGUM
METAR PGUM 201054Z 00000KT 10SM CLR 26/23 A2987 RMK AO2 SLP107
T02560228




000
SAGM31 PGUM 201055
MTRGUM
METAR PGUM 201054Z 00000KT 10SM CLR 26/23 A2987 RMK AO2 SLP107
T02560228





000
SAGM31 PGUM 200955
MTRGUM
METAR PGUM 200954Z 01003KT 10SM CLR 26/23 A2985 RMK AO2 SLP099
T02610233




000
SAGM31 PGUM 200955
MTRGUM
METAR PGUM 200954Z 01003KT 10SM CLR 26/23 A2985 RMK AO2 SLP099
T02610233





000
SAGM31 PGUM 200855
MTRGUM
METAR PGUM 200854Z 04004KT 10SM CLR 27/23 A2983 RMK AO2 SLP094
T02670228 53001




000
SAGM31 PGUM 200755
MTRGUM
METAR PGUM 200754Z 00000KT 10SM CLR 27/23 A2982 RMK AO2 SLP090
T02670228




000
SAGM31 PGUM 200755
MTRGUM
METAR PGUM 200754Z 00000KT 10SM CLR 27/23 A2982 RMK AO2 SLP090
T02670228





000
SAGM31 PGUM 200655
MTRGUM
METAR PGUM 200654Z 19003KT 10SM CLR 27/22 A2982 RMK AO2 SLP090
T02670222




000
SAGM31 PGUM 200655
MTRGUM
METAR PGUM 200654Z 19003KT 10SM CLR 27/22 A2982 RMK AO2 SLP090
T02670222





000
SAGM31 PGUM 200555
MTRGUM
METAR PGUM 200554Z 17008KT 10SM FEW012 27/23 A2983 RMK AO2 SLP092
60101 T02670233 10311 20239 58017




000
SAGM31 PGUM 200555
MTRGUM
METAR PGUM 200554Z 17008KT 10SM FEW012 27/23 A2983 RMK AO2 SLP092
60101 T02670233 10311 20239 58017





000
SAGM31 PGUM 200542
MTRGUM
SPECI PGUM 200541Z 16009KT 10SM FEW012 27/23 A2983 RMK AO2




000
SAGM31 PGUM 200542
MTRGUM
SPECI PGUM 200541Z 16009KT 10SM FEW012 27/23 A2983 RMK AO2





000
SAGM31 PGUM 200515
MTRGUM
SPECI PGUM 200514Z 16011KT 10SM BKN012 27/24 A2984 RMK AO2




000
SAGM31 PGUM 200515
MTRGUM
SPECI PGUM 200514Z 16011KT 10SM BKN012 27/24 A2984 RMK AO2





000
SAGM31 PGUM 200502
MTRGUM
SPECI PGUM 200501Z 17008KT 10SM SCT009 SCT014 27/24 A2984 RMK AO2




000
SAGM31 PGUM 200502
MTRGUM
SPECI PGUM 200501Z 17008KT 10SM SCT009 SCT014 27/24 A2984 RMK AO2





000
SAGM31 PGUM 200455
MTRGUM
METAR PGUM 200454Z 16011KT 10SM FEW022CB 27/24 A2984 RMK AO2
TSE12RAE12 SLP097 MOVD SW CB W-NW P0000 T02670239





000
SAGM31 PGUM 200455
MTRGUM
METAR PGUM 200454Z 16011KT 10SM FEW022CB 27/24 A2984 RMK AO2
TSE12RAE12 SLP097 MOVD SW CB W-NW P0000 T02670239




000
SAGM31 PGUM 200419
MTRGUM
SPECI PGUM 200418Z 16008KT 10SM SCT022CB 26/24 A2985 RMK AO2
TSE12RAE12 MOVD SW CB W-NW P0000




000
SAGM31 PGUM 200355
MTRGUM
METAR PGUM 200354Z 16007KT 10SM -TSRA FEW007 BKN022CB OVC060 26/24
A2987 RMK AO2 SLP108 CB E-SE AND SW-W-NW MOV SW OCNL LTGICCCCG W-NW
P0001 T02560239




000
SAGM31 PGUM 200355
MTRGUM
METAR PGUM 200354Z 16007KT 10SM -TSRA FEW007 BKN022CB OVC060 26/24
A2987 RMK AO2 SLP108 CB E-SE AND SW-W-NW MOV SW OCNL LTGICCCCG W-NW
P0001 T02560239





000
SAGM31 PGUM 200317
MTRGUM
SPECI PGUM 200310Z COR 08003KT 10SM -TSRA SCT016CB BKN025 OVC060
26/23 A2986 RMK AO2 CB NE-E-SE SW-W-NW MOV SW OCNL LTGIC NW P0000





000
SAGM31 PGUM 200317
MTRGUM
SPECI PGUM 200310Z COR 08003KT 10SM -TSRA SCT016CB BKN025 OVC060
26/23 A2986 RMK AO2 CB NE-E-SE SW-W-NW MOV SW OCNL LTGIC NW P0000




000
SAGM31 PGUM 200311
MTRGUM
SPECI PGUM 200310Z 08003KT 10SM -TSRA SCT016CB BKN025 OVC060 26/23
A2986 RMK AO2 CB NW-W-SW MOV SW OCNL LTGIC P0000





000
SAGM31 PGUM 200302
MTRGUM
SPECI PGUM 200301Z 00000KT 10SM -TSRA FEW024CB BKN040 BKN060 25/23
A2987 RMK AO2 CB NW-W SW MOV SW OCNL LTGIC P0000





000
SAGM31 PGUM 200302
MTRGUM
SPECI PGUM 200301Z 00000KT 10SM -TSRA FEW024CB BKN040 BKN060 25/23
A2987 RMK AO2 CB NW-W SW MOV SW OCNL LTGIC P0000




000
SAGM31 PGUM 200255
MTRGUM
METAR PGUM 200254Z 00000KT 2 1/2SM -TSRA FEW007 OVC016CB 25/23 A2988
RMK AO2 TWR VIS 4 TSB09 SLP109 CB NE-OVC-S OCNL LTGICCCCG P0082
60082 T02500228 56003




000
SAGM31 PGUM 200255
MTRGUM
METAR PGUM 200254Z 00000KT 2 1/2SM -TSRA FEW007 OVC016CB 25/23 A2988
RMK AO2 TWR VIS 4 TSB09 SLP109 CB NE-OVC-S OCNL LTGICCCCG P0082
60082 T02500228 56003





000
SAGM31 PGUM 200253
MTRGUM
SPECI PGUM 200252Z 00000KT 2SM TSRA FEW007 OVC016CB 25/23 A2988 RMK
AO2 TWR VIS 3 TSB09 CB NE-OVC-S OCNL LTGICCCCG P0082




000
SAGM31 PGUM 200253
MTRGUM
SPECI PGUM 200252Z 00000KT 2SM TSRA FEW007 OVC016CB 25/23 A2988 RMK
AO2 TWR VIS 3 TSB09 CB NE-OVC-S OCNL LTGICCCCG P0082





000
SAGM31 PGUM 200246
MTRGUM
SPECI PGUM 200245Z 28005KT 3SM +TSRA FEW007 OVC016CB 25/23 A2988 RMK
AO2 TSB09 CB NE-OVC-S OCNL LTGICCCCG P0077





000
SAGM31 PGUM 200246
MTRGUM
SPECI PGUM 200245Z 28005KT 3SM +TSRA FEW007 OVC016CB 25/23 A2988 RMK
AO2 TSB09 CB NE-OVC-S OCNL LTGICCCCG P0077




000
SAGM31 PGUM 200239
MTRGUM
SPECI PGUM 200238Z 29006KT 2SM +TSRA FEW007 OVC016CB 26/23 A2988 RMK
AO2 VIS 1V5 TSB09 CB NE-OVC-S OCNL LTGICCCCG P0075





000
SAGM31 PGUM 200239
MTRGUM
SPECI PGUM 200238Z 29006KT 2SM +TSRA FEW007 OVC016CB 26/23 A2988 RMK
AO2 VIS 1V5 TSB09 CB NE-OVC-S OCNL LTGICCCCG P0075




000
SAGM31 PGUM 200230
MTRGUM
SPECI PGUM 200212Z COR 36011KT 1/2SM TSRA FEW007 BKN016CB OVC023
27/25 A2989 RMK AO2 TSB08 OHD MOV SW CB NE-OVC-S OCNL LTGICCCCG
P0020




000
SAGM31 PGUM 200230
MTRGUM
SPECI PGUM 200212Z COR 36011KT 1/2SM TSRA FEW007 BKN016CB OVC023
27/25 A2989 RMK AO2 TSB08 OHD MOV SW CB NE-OVC-S OCNL LTGICCCCG
P0020





000
SAGM31 PGUM 200223
MTRGUM
SPECI PGUM 200212Z COR 36011KT 2 1/2SM TSRA FEW007 BKN016CB OVC023
27/25 A2989 RMK AO2 TSB08 OHD MOV SW CB NE-OVC-S OCNL LTGICCCCG
P0020




000
SAGM31 PGUM 200223
MTRGUM
SPECI PGUM 200212Z COR 36011KT 2 1/2SM TSRA FEW007 BKN016CB OVC023
27/25 A2989 RMK AO2 TSB08 OHD MOV SW CB NE-OVC-S OCNL LTGICCCCG
P0020





000
SAGM31 PGUM 200222
MTRGUM
SPECI PGUM 200221Z 34010KT 3/4SM +TSRA FEW007 BKN016CB OVC023 24/23
A2989 RMK AO2 TSB09 CB NE-OVC-S OCNL LTGICCCCG P0035




000
SAGM31 PGUM 200213
MTRGUM
SPECI PGUM 200212Z 36011KT 2 1/2SM TSRA FEW007 BKN016CB OVC023 27/25
A2989 RMK AO2 TSB09 TSB08 AND CB NE-OVC-S OCNL LTGICCCCG P0020




000
SAGM31 PGUM 200213
MTRGUM
SPECI PGUM 200212Z 36011KT 2 1/2SM TSRA FEW007 BKN016CB OVC023 27/25
A2989 RMK AO2 TSB09 TSB08 AND CB NE-OVC-S OCNL LTGICCCCG P0020





000
SAGM31 PGUM 200209
MTRGUM
SPECI PGUM 200208Z 31008KT 280V340 2 1/2SM -RA BR FEW007 BKN016CB
OVC023 27/25 A2989 RMK AO2 VIS 3/4V5 CB NE-OVC-S P0019





000
SAGM31 PGUM 200209
MTRGUM
SPECI PGUM 200208Z 31008KT 280V340 2 1/2SM -RA BR FEW007 BKN016CB
OVC023 27/25 A2989 RMK AO2 VIS 3/4V5 CB NE-OVC-S P0019




000
SAGM31 PGUM 200158
MTRGUM
SPECI PGUM 200157Z 28003KT 1 3/4SM +RA BR FEW010 BKN025 OVC060 28/26
A2989 RMK AO2 P0003





000
SAGM31 PGUM 200158
MTRGUM
SPECI PGUM 200157Z 28003KT 1 3/4SM +RA BR FEW010 BKN025 OVC060 28/26
A2989 RMK AO2 P0003




000
SAGM31 PGUM 200155
MTRGUM
METAR PGUM 200154Z 32004KT 4SM -RA BKN025CB OVC055 28/26 A2988 RMK
AO2 RAB53 SLP110 CB NE-OHD-S P0000 T02830256




000
SAGM31 PGUM 200155
MTRGUM
METAR PGUM 200154Z 32004KT 4SM -RA BKN025CB OVC055 28/26 A2988 RMK
AO2 RAB53 SLP110 CB NE-OHD-S P0000 T02830256





000
SAGM31 PGUM 200147
MTRGUM
SPECI PGUM 200146Z 33005KT 10SM BKN025 OVC060 29/25 A2988 RMK AO2




000
SAGM31 PGUM 200147
MTRGUM
SPECI PGUM 200146Z 33005KT 10SM BKN025 OVC060 29/25 A2988 RMK AO2





000
SAGM31 PGUM 200055
MTRGUM
METAR PGUM 200054Z 35007KT 10SM SCT030 31/25 A2989 RMK AO2 SLP112
T03060250




000
SAGM31 PGUM 200055
MTRGUM
METAR PGUM 200054Z 35007KT 10SM SCT030 31/25 A2989 RMK AO2 SLP112
T03060250





000
SAGM31 PGUM 192355
MTRGUM
METAR PGUM 192354Z VRB05KT 10SM CLR 30/25 A2990 RMK AO2 SLP116
T03000250 10300 20261 51012




000
SAGM31 PGUM 192355
MTRGUM
METAR PGUM 192354Z VRB05KT 10SM CLR 30/25 A2990 RMK AO2 SLP116
T03000250 10300 20261 51012





000
SAGM31 PGUM 192255
MTRGUM
METAR PGUM 192254Z 31003KT 10SM CLR 29/24 A2989 RMK AO2 SLP114
T02890244




000
SAGM31 PGUM 192255
MTRGUM
METAR PGUM 192254Z 31003KT 10SM CLR 29/24 A2989 RMK AO2 SLP114
T02890244





000
SAGM31 PGUM 192155
MTRGUM
METAR PGUM 192154Z 00000KT 10SM CLR 28/25 A2988 RMK AO2 SLP111
T02780250




000
SAGM31 PGUM 192155
MTRGUM
METAR PGUM 192154Z 00000KT 10SM CLR 28/25 A2988 RMK AO2 SLP111
T02780250





000
SAGM31 PGUM 192055
MTRGUM
METAR PGUM 192054Z 08003KT 10SM CLR 27/24 A2986 RMK AO2 SLP104
T02720239 51012





000
SAGM31 PGUM 192055
MTRGUM
METAR PGUM 192054Z 08003KT 10SM CLR 27/24 A2986 RMK AO2 SLP104
T02720239 51012




000
SAGM31 PGUM 191955
MTRGUM
METAR PGUM 191954Z 00000KT 10SM BKN065 27/23 A2985 RMK AO2 SLP100
T02670233




000
SAGM31 PGUM 191955
MTRGUM
METAR PGUM 191954Z 00000KT 10SM BKN065 27/23 A2985 RMK AO2 SLP100
T02670233





000
SAGM31 PGUM 191855
MTRGUM
METAR PGUM 191854Z 05004KT 10SM SCT021 27/24 A2984 RMK AO2 SLP097
T02670239




000
SAGM31 PGUM 191855
MTRGUM
METAR PGUM 191854Z 05004KT 10SM SCT021 27/24 A2984 RMK AO2 SLP097
T02670239





000
SAGM31 PGUM 191848
MTRGUM
SPECI PGUM 191847Z 05005KT 10SM BKN021 BKN040 27/24 A2984 RMK AO2




000
SAGM31 PGUM 191848
MTRGUM
SPECI PGUM 191847Z 05005KT 10SM BKN021 BKN040 27/24 A2984 RMK AO2





000
SAGM31 PGUM 191755
MTRGUM
METAR PGUM 191754Z 00000KT 10SM FEW044 27/24 A2982 RMK AO2 SLP091
T02720239 10283 20261 58014




000
SAGM31 PGUM 191755
MTRGUM
METAR PGUM 191754Z 00000KT 10SM FEW044 27/24 A2982 RMK AO2 SLP091
T02720239 10283 20261 58014





000
SAGM31 PGUM 191655
MTRGUM
METAR PGUM 191654Z 00000KT 10SM CLR 28/23 A2984 RMK AO2 SLP098 FRQ
LTGICCC DSNT NE T02780233




000
SAGM31 PGUM 191555
MTRGUM
METAR PGUM 191554Z 00000KT 10SM CLR 27/24 A2985 RMK AO2 SLP100 OCNL
LTGICCC DSNT E T02670239




000
SAGM31 PGUM 191555
MTRGUM
METAR PGUM 191554Z 00000KT 10SM CLR 27/24 A2985 RMK AO2 SLP100 OCNL
LTGICCC DSNT E T02670239





000
SAGM31 PGUM 191455
MTRGUM
METAR PGUM 191454Z 00000KT 10SM CLR 28/24 A2987 RMK AO2 SLP105
T02780239 58013




000
SAGM31 PGUM 191455
MTRGUM
METAR PGUM 191454Z 00000KT 10SM CLR 28/24 A2987 RMK AO2 SLP105
T02780239 58013





000
SAGM31 PGUM 191355
MTRGUM
METAR PGUM 191354Z 00000KT 10SM CLR 28/24 A2989 RMK AO2 SLP112
T02780244 403170261




000
SAGM31 PGUM 191355
MTRGUM
METAR PGUM 191354Z 00000KT 10SM CLR 28/24 A2989 RMK AO2 SLP112
T02780244 403170261





000
SAGM31 PGUM 191255
MTRGUM
METAR PGUM 191254Z 00000KT 10SM FEW020 28/24 A2989 RMK AO2 SLP111
T02830239




000
SAGM31 PGUM 191255
MTRGUM
METAR PGUM 191254Z 00000KT 10SM FEW020 28/24 A2989 RMK AO2 SLP111
T02830239





000
SAGM31 PGUM 191155
MTRGUM
METAR PGUM 191154Z 09004KT 10SM FEW020 28/24 A2990 RMK AO2 SLP118
70002 T02780244 10300 20278 51006




000
SAGM31 PGUM 191155
MTRGUM
METAR PGUM 191154Z 09004KT 10SM FEW020 28/24 A2990 RMK AO2 SLP118
70002 T02780244 10300 20278 51006





000
SAGM31 PGUM 191055
MTRGUM
METAR PGUM 191054Z 06006KT 10SM FEW020 28/24 A2990 RMK AO2 SLP118
T02830244





000
SAGM31 PGUM 191055
MTRGUM
METAR PGUM 191054Z 06006KT 10SM FEW020 28/24 A2990 RMK AO2 SLP118
T02830244




000
SAGM31 PGUM 190955
MTRGUM
METAR PGUM 190954Z 04004KT 10SM FEW020 28/24 A2989 RMK AO2 SLP112
OCNL LTGICCC DSNT W T02780244




000
SAGM31 PGUM 190955
MTRGUM
METAR PGUM 190954Z 04004KT 10SM FEW020 28/24 A2989 RMK AO2 SLP112
OCNL LTGICCC DSNT W T02780244





000
SAGM31 PGUM 190855
MTRGUM
METAR PGUM 190854Z 09005KT 10SM FEW020 28/24 A2988 RMK AO2 SLP111
T02830244 51013




000
SAGM31 PGUM 190855
MTRGUM
METAR PGUM 190854Z 09005KT 10SM FEW020 28/24 A2988 RMK AO2 SLP111
T02830244 51013





000
SAGM31 PGUM 190755
MTRGUM
METAR PGUM 190754Z 06006KT 10SM FEW020 29/24 A2987 RMK AO2 SLP108
T02940244




000
SAGM31 PGUM 190755
MTRGUM
METAR PGUM 190754Z 06006KT 10SM FEW020 29/24 A2987 RMK AO2 SLP108
T02940244





000
SAGM31 PGUM 190655
MTRGUM
METAR PGUM 190654Z 11007KT 10SM CLR 29/24 A2986 RMK AO2 SLP102
T02940239




000
SAGM31 PGUM 190655
MTRGUM
METAR PGUM 190654Z 11007KT 10SM CLR 29/24 A2986 RMK AO2 SLP102
T02940239





000
SAGM31 PGUM 190555
MTRGUM
METAR PGUM 190554Z 11005KT 10SM CLR 29/24 A2985 RMK AO2 SLP098
T02940244 10317 20294 56010




000
SAGM31 PGUM 190555
MTRGUM
METAR PGUM 190554Z 11005KT 10SM CLR 29/24 A2985 RMK AO2 SLP098
T02940244 10317 20294 56010





000
SAGM31 PGUM 190459
MTRGUM
METAR PGUM 190454Z COR 09007KT 10SM FEW023 30/23 A2986 RMK AO2
SLP103 T03000233





000
SAGM31 PGUM 190459
MTRGUM
METAR PGUM 190454Z COR 09007KT 10SM FEW023 30/23 A2986 RMK AO2
SLP103 T03000233




000
SAGM31 PGUM 190455
MTRGUM
METAR PGUM 190454Z 09007KT 10SM CLR 30/23 A2986 RMK AO2 SLP103
T03000233




000
SAGM31 PGUM 190455
MTRGUM
METAR PGUM 190454Z 09007KT 10SM CLR 30/23 A2986 RMK AO2 SLP103
T03000233





000
SAGM31 PGUM 190355
MTRGUM
METAR PGUM 190354Z 10008KT 10SM CLR 31/23 A2986 RMK AO2 SLP104
T03060228





000
SAGM31 PGUM 190355
MTRGUM
METAR PGUM 190354Z 10008KT 10SM CLR 31/23 A2986 RMK AO2 SLP104
T03060228




000
SAGM31 PGUM 190255
MTRGUM
METAR PGUM 190254Z 09007KT 10SM FEW022 31/23 A2988 RMK AO2 SLP109
T03060233 58014




000
SAGM31 PGUM 190255
MTRGUM
METAR PGUM 190254Z 09007KT 10SM FEW022 31/23 A2988 RMK AO2 SLP109
T03060233 58014





000
SAGM31 PGUM 190155
MTRGUM
METAR PGUM 190154Z 09006KT 10SM FEW024 31/23 A2990 RMK AO2 SLP117
T03110228




000
SAGM31 PGUM 190155
MTRGUM
METAR PGUM 190154Z 09006KT 10SM FEW024 31/23 A2990 RMK AO2 SLP117
T03110228





000
SAGM31 PGUM 190055
MTRGUM
METAR PGUM 190054Z 09003KT 10SM CLR 31/22 A2991 RMK AO2 SLP120
T03110222




000
SAGM31 PGUM 190055
MTRGUM
METAR PGUM 190054Z 09003KT 10SM CLR 31/22 A2991 RMK AO2 SLP120
T03110222





000
SAGM31 PGUM 182355
MTRGUM
METAR PGUM 182354Z 09006KT 10SM SCT022 31/24 A2992 RMK AO2 SLP123
T03060244 10306 20267 50007





000
SAGM31 PGUM 182355
MTRGUM
METAR PGUM 182354Z 09006KT 10SM SCT022 31/24 A2992 RMK AO2 SLP123
T03060244 10306 20267 50007




000
SAGM31 PGUM 182255
MTRGUM
METAR PGUM 182254Z 08003KT 10SM CLR 28/24 A2992 RMK AO2 SLP125
T02830244




000
SAGM31 PGUM 182255
MTRGUM
METAR PGUM 182254Z 08003KT 10SM CLR 28/24 A2992 RMK AO2 SLP125
T02830244





000
SAGM31 PGUM 182155
MTRGUM
METAR PGUM 182154Z 00000KT 10SM CLR 28/24 A2991 RMK AO2 SLP119
T02780244





000
SAGM31 PGUM 182055
MTRGUM
METAR PGUM 182054Z 00000KT 10SM CLR 27/24 A2990 RMK AO2 SLP116
T02720239 51013




000
SAGM31 PGUM 182055
MTRGUM
METAR PGUM 182054Z 00000KT 10SM CLR 27/24 A2990 RMK AO2 SLP116
T02720239 51013





000
SAGM31 PGUM 181955
MTRGUM
METAR PGUM 181954Z 00000KT 10SM CLR 27/23 A2988 RMK AO2 SLP111
T02670233




000
SAGM31 PGUM 181955
MTRGUM
METAR PGUM 181954Z 00000KT 10SM CLR 27/23 A2988 RMK AO2 SLP111
T02670233





000
SAGM31 PGUM 181855
MTRGUM
METAR PGUM 181854Z 13003KT 10SM CLR 27/25 A2988 RMK AO2 SLP110
T02670250




000
SAGM31 PGUM 181855
MTRGUM
METAR PGUM 181854Z 13003KT 10SM CLR 27/25 A2988 RMK AO2 SLP110
T02670250





000
SAGM31 PGUM 181755
MTRGUM
METAR PGUM 181754Z 00000KT 10SM CLR 27/25 A2986 RMK AO2 SLP103 60002
T02670250 10278 20261 55005




000
SAGM31 PGUM 181755
MTRGUM
METAR PGUM 181754Z 00000KT 10SM CLR 27/25 A2986 RMK AO2 SLP103 60002
T02670250 10278 20261 55005





000
SAGM31 PGUM 181655
MTRGUM
METAR PGUM 181654Z 00000KT 10SM FEW024 27/25 A2985 RMK AO2 SLP100
T02670250




000
SAGM31 PGUM 181655
MTRGUM
METAR PGUM 181654Z 00000KT 10SM FEW024 27/25 A2985 RMK AO2 SLP100
T02670250





000
SAGM31 PGUM 181555
MTRGUM
METAR PGUM 181554Z 00000KT 10SM FEW018 SCT027 27/25 A2984 RMK AO2
SLP098 T02670250




000
SAGM31 PGUM 181555
MTRGUM
METAR PGUM 181554Z 00000KT 10SM FEW018 SCT027 27/25 A2984 RMK AO2
SLP098 T02670250





000
SAGM31 PGUM 181455
MTRGUM
METAR PGUM 181454Z 17003KT 10SM CLR 28/25 A2987 RMK AO2 RAB04E21
SLP107 P0002 60002 T02780250 58013




000
SAGM31 PGUM 181455
MTRGUM
METAR PGUM 181454Z 17003KT 10SM CLR 28/25 A2987 RMK AO2 RAB04E21
SLP107 P0002 60002 T02780250 58013





000
SAGM31 PGUM 181432
MTRGUM
SPECI PGUM 181431Z 00000KT 10SM SCT017 27/25 A2989 RMK AO2 RAB04E21
P0002





000
SAGM31 PGUM 181432
MTRGUM
SPECI PGUM 181431Z 00000KT 10SM SCT017 27/25 A2989 RMK AO2 RAB04E21
P0002




000
SAGM31 PGUM 181417
MTRGUM
SPECI PGUM 181416Z 08004KT 10SM -RA BKN017 BKN022 OVC060 27/25 A2991
RMK AO2 RAB04 P0002




000
SAGM31 PGUM 181417
MTRGUM
SPECI PGUM 181416Z 08004KT 10SM -RA BKN017 BKN022 OVC060 27/25 A2991
RMK AO2 RAB04 P0002





000
SAGM31 PGUM 181355
MTRGUM
METAR PGUM 181354Z 08003KT 10SM FEW019 BKN032 BKN040 28/25 A2992 RMK
AO2 RAB15E24 SLP123 P0000 T02780250 403170250




000
SAGM31 PGUM 181355
MTRGUM
METAR PGUM 181354Z 08003KT 10SM FEW019 BKN032 BKN040 28/25 A2992 RMK
AO2 RAB15E24 SLP123 P0000 T02780250 403170250





000
SAGM31 PGUM 181319
MTRGUM
SPECI PGUM 181318Z 11005KT 10SM -RA SCT018 BKN030 OVC110 28/25 A2993
RMK AO2 RAB15 P0000





000
SAGM31 PGUM 181319
MTRGUM
SPECI PGUM 181318Z 11005KT 10SM -RA SCT018 BKN030 OVC110 28/25 A2993
RMK AO2 RAB15 P0000




000
SAGM31 PGUM 181302
MTRGUM
SPECI PGUM 181301Z 00000KT 10SM SCT020 BKN026 BKN031 28/25 A2993 RMK
AO2




000
SAGM31 PGUM 181302
MTRGUM
SPECI PGUM 181301Z 00000KT 10SM SCT020 BKN026 BKN031 28/25 A2993 RMK
AO2





000
SAGM31 PGUM 181255
MTRGUM
METAR PGUM 181254Z 13003KT 10SM FEW020 28/25 A2993 RMK AO2 SLP126
T02780250




000
SAGM31 PGUM 181255
MTRGUM
METAR PGUM 181254Z 13003KT 10SM FEW020 28/25 A2993 RMK AO2 SLP126
T02780250





000
SAGM31 PGUM 181155
MTRGUM
METAR PGUM 181154Z 13004KT 10SM FEW020 28/24 A2991 RMK AO2 SLP121
T02780244 10306 20278 51009




000
SAGM31 PGUM 181155
MTRGUM
METAR PGUM 181154Z 13004KT 10SM FEW020 28/24 A2991 RMK AO2 SLP121
T02780244 10306 20278 51009





000
SAGM31 PGUM 181055
MTRGUM
METAR PGUM 181054Z 13004KT 10SM FEW020 28/24 A2990 RMK AO2 SLP117
T02780244




000
SAGM31 PGUM 181055
MTRGUM
METAR PGUM 181054Z 13004KT 10SM FEW020 28/24 A2990 RMK AO2 SLP117
T02780244





000
SAGM31 PGUM 180955
MTRGUM
METAR PGUM 180954Z 14004KT 10SM CLR 28/25 A2990 RMK AO2 SLP116
T02780250




000
SAGM31 PGUM 180955
MTRGUM
METAR PGUM 180954Z 14004KT 10SM CLR 28/25 A2990 RMK AO2 SLP116
T02780250





000
SAGM31 PGUM 180855
MTRGUM
METAR PGUM 180854Z 14004KT 10SM FEW019 28/25 A2989 RMK AO2 SLP112
T02830250 53015





000
SAGM31 PGUM 180855
MTRGUM
METAR PGUM 180854Z 14004KT 10SM FEW019 28/25 A2989 RMK AO2 SLP112
T02830250 53015




000
SAGM31 PGUM 180755
MTRGUM
METAR PGUM 180754Z 14006KT 10SM FEW016 29/25 A2987 RMK AO2 SLP106
T02940250




000
SAGM31 PGUM 180755
MTRGUM
METAR PGUM 180754Z 14006KT 10SM FEW016 29/25 A2987 RMK AO2 SLP106
T02940250





000
SAGM31 PGUM 180655
MTRGUM
METAR PGUM 180654Z 16006KT 10SM SCT020 29/25 A2985 RMK AO2 SLP100
T02940250




000
SAGM31 PGUM 180655
MTRGUM
METAR PGUM 180654Z 16006KT 10SM SCT020 29/25 A2985 RMK AO2 SLP100
T02940250





000
SAGM31 PGUM 180555
MTRGUM
METAR PGUM 180554Z 13007KT 10SM FEW020 SCT026 SCT075 29/25 A2984 RMK
AO2 SLP097 T02940250 10317 20294 56006




000
SAGM31 PGUM 180555
MTRGUM
METAR PGUM 180554Z 13007KT 10SM FEW020 SCT026 SCT075 29/25 A2984 RMK
AO2 SLP097 T02940250 10317 20294 56006





000
SAGM31 PGUM 180455
MTRGUM
METAR PGUM 180454Z 14007KT 100V160 10SM SCT018 BKN032 31/25 A2985
RMK AO2 SLP098 CB DSNT W AND NW MOV W T03060250




000
SAGM31 PGUM 180455
MTRGUM
METAR PGUM 180454Z 14007KT 100V160 10SM SCT018 BKN032 31/25 A2985
RMK AO2 SLP098 CB DSNT W AND NW MOV W T03060250





000
SAGM31 PGUM 180355
MTRGUM
METAR PGUM 180354Z 14006G15KT 10SM SCT020 SCT027 31/25 A2986 RMK AO2
SLP102 T03110250





000
SAGM31 PGUM 180355
MTRGUM
METAR PGUM 180354Z 14006G15KT 10SM SCT020 SCT027 31/25 A2986 RMK AO2
SLP102 T03110250




000
SAGM31 PGUM 180349
MTRGUM
SPECI PGUM 180348Z 14010G15KT 10SM BKN020 BKN027 BKN035 31/25 A2985
RMK AO2




000
SAGM31 PGUM 180349
MTRGUM
SPECI PGUM 180348Z 14010G15KT 10SM BKN020 BKN027 BKN035 31/25 A2985
RMK AO2





000
SAGM31 PGUM 180255
MTRGUM
METAR PGUM 180254Z 13008KT 10SM FEW018 SCT060 32/26 A2986 RMK AO2
SLP104 CB DSNT NW MOV W T03170256 58013





000
SAGM31 PGUM 180255
MTRGUM
METAR PGUM 180254Z 13008KT 10SM FEW018 SCT060 32/26 A2986 RMK AO2
SLP104 CB DSNT NW MOV W T03170256 58013




000
SAGM31 PGUM 180155
MTRGUM
METAR PGUM 180154Z 11009KT 10SM SCT017 31/26 A2988 RMK AO2 SLP111 CB
DSNT SE MOV W T03060261





000
SAGM31 PGUM 180155
MTRGUM
METAR PGUM 180154Z 11009KT 10SM SCT017 31/26 A2988 RMK AO2 SLP111 CB
DSNT SE MOV W T03060261




000
SAGM31 PGUM 180055
MTRGUM
METAR PGUM 180054Z 10009KT 10SM FEW024 SCT037 31/25 A2989 RMK AO2
SLP115 T03110250




000
SAGM31 PGUM 180055
MTRGUM
METAR PGUM 180054Z 10009KT 10SM FEW024 SCT037 31/25 A2989 RMK AO2
SLP115 T03110250





000
SAGM31 PGUM 172355
MTRGUM
METAR PGUM 172354Z 07003KT 10SM SCT023 31/24 A2990 RMK AO2 SLP117
T03060244 10311 20256 50004




000
SAGM31 PGUM 172355
MTRGUM
METAR PGUM 172354Z 07003KT 10SM SCT023 31/24 A2990 RMK AO2 SLP117
T03060244 10311 20256 50004





000
SAGM31 PGUM 172329
MTRGUM
SPECI PGUM 172328Z 06007KT 10SM SCT019 SCT025 31/24 A2990 RMK AO2





000
SAGM31 PGUM 172329
MTRGUM
SPECI PGUM 172328Z 06007KT 10SM SCT019 SCT025 31/24 A2990 RMK AO2




000
SAGM31 PGUM 172255
MTRGUM
METAR PGUM 172254Z 04005KT 10SM BKN017 BKN025 BKN040 29/26 A2990 RMK
AO2 SLP117 T02940256




000
SAGM31 PGUM 172237
MTRGUM
SPECI PGUM 172236Z 05006KT 10SM BKN017 BKN023 29/26 A2990 RMK AO2





    US Dept of Commerce
    National Oceanic and Atmospheric Administration
    National Weather Service
    1325 East West Highway
    Silver Spring, MD 20910
    Page Author: NWS Internet Services Team
Disclaimer
Information Quality
Credits
Glossary
Privacy Policy
Freedom of Information Act (FOIA)
About Us
Career Opportunities